sensor_id;sensor_type;location;lat;lon;timestamp;pressure;altitude;pressure_sealevel;temperature;humidity
43553;BME280;29153;42.696;23.218;2023-07-29T00:00:13;94325.95;;;14.79;88.08
43553;BME280;29153;42.696;23.218;2023-07-29T00:02:41;94323.77;;;14.70;88.32
43553;BME280;29153;42.696;23.218;2023-07-29T00:05:09;94328.20;;;14.63;88.48
43553;BME280;29153;42.696;23.218;2023-07-29T00:07:37;94324.97;;;14.64;88.28
43553;BME280;29153;42.696;23.218;2023-07-29T00:10:05;94328.61;;;14.68;88.45
43553;BME280;29153;42.696;23.218;2023-07-29T00:12:33;94327.34;;;14.65;88.76
43553;BME280;29153;42.696;23.218;2023-07-29T00:15:01;94326.94;;;14.72;88.23
43553;BME280;29153;42.696;23.218;2023-07-29T00:17:28;94324.39;;;14.67;88.54
43553;BME280;29153;42.696;23.218;2023-07-29T00:19:56;94321.70;;;14.55;88.65
43553;BME280;29153;42.696;23.218;2023-07-29T00:22:23;94318.32;;;14.52;89.07
43553;BME280;29153;42.696;23.218;2023-07-29T00:24:55;94318.25;;;14.44;89.84
43553;BME280;29153;42.696;23.218;2023-07-29T00:27:24;94318.50;;;14.45;90.08
43553;BME280;29153;42.696;23.218;2023-07-29T00:29:52;94316.42;;;14.42;90.33
43553;BME280;29153;42.696;23.218;2023-07-29T00:32:19;94305.91;;;14.37;90.60
43553;BME280;29153;42.696;23.218;2023-07-29T00:34:47;94310.52;;;14.31;90.77
43553;BME280;29153;42.696;23.218;2023-07-29T00:37:15;94308.22;;;14.27;91.00
43553;BME280;29153;42.696;23.218;2023-07-29T00:39:42;94303.56;;;14.33;90.87
43553;BME280;29153;42.696;23.218;2023-07-29T00:42:10;94306.63;;;14.26;91.00
43553;BME280;29153;42.696;23.218;2023-07-29T00:44:38;94302.78;;;14.32;90.47
43553;BME280;29153;42.696;23.218;2023-07-29T00:47:06;94307.24;;;14.34;90.52
43553;BME280;29153;42.696;23.218;2023-07-29T00:49:34;94303.25;;;14.23;90.92
43553;BME280;29153;42.696;23.218;2023-07-29T00:52:02;94308.33;;;14.22;91.07
43553;BME280;29153;42.696;23.218;2023-07-29T00:54:29;94308.90;;;14.33;90.20
43553;BME280;29153;42.696;23.218;2023-07-29T00:56:57;94309.80;;;14.28;90.22
43553;BME280;29153;42.696;23.218;2023-07-29T00:59:25;94311.28;;;14.21;90.94
43553;BME280;29153;42.696;23.218;2023-07-29T01:01:55;94308.75;;;14.16;91.39
43553;BME280;29153;42.696;23.218;2023-07-29T01:04:22;94297.59;;;14.02;91.92
43553;BME280;29153;42.696;23.218;2023-07-29T01:07:11;94305.43;;;13.96;92.44
43553;BME280;29153;42.696;23.218;2023-07-29T01:09:59;94303.74;;;14.00;92.64
43553;BME280;29153;42.696;23.218;2023-07-29T01:13:01;94303.20;;;14.01;92.39
43553;BME280;29153;42.696;23.218;2023-07-29T01:15:39;94301.69;;;13.97;92.62
43553;BME280;29153;42.696;23.218;2023-07-29T01:18:11;94299.42;;;13.91;92.79
43553;BME280;29153;42.696;23.218;2023-07-29T01:20:37;94307.30;;;13.96;92.69
43553;BME280;29153;42.696;23.218;2023-07-29T01:23:06;94306.33;;;13.92;92.76
43553;BME280;29153;42.696;23.218;2023-07-29T01:25:34;94306.68;;;13.88;92.97
43553;BME280;29153;42.696;23.218;2023-07-29T01:28:01;94300.88;;;13.86;93.11
43553;BME280;29153;42.696;23.218;2023-07-29T01:30:37;94296.56;;;13.87;93.18
43553;BME280;29153;42.696;23.218;2023-07-29T01:33:14;94301.17;;;13.84;93.12
43553;BME280;29153;42.696;23.218;2023-07-29T01:35:47;94301.45;;;13.83;93.07
43553;BME280;29153;42.696;23.218;2023-07-29T01:38:18;94313.94;;;13.85;93.19
43553;BME280;29153;42.696;23.218;2023-07-29T01:40:47;94315.13;;;13.79;93.49
43553;BME280;29153;42.696;23.218;2023-07-29T01:43:16;94309.45;;;13.83;93.22
43553;BME280;29153;42.696;23.218;2023-07-29T01:45:45;94307.64;;;13.81;93.07
43553;BME280;29153;42.696;23.218;2023-07-29T01:48:13;94308.11;;;13.83;92.74
43553;BME280;29153;42.696;23.218;2023-07-29T01:50:40;94307.23;;;13.74;93.27
43553;BME280;29153;42.696;23.218;2023-07-29T01:53:08;94304.80;;;13.63;94.02
43553;BME280;29153;42.696;23.218;2023-07-29T01:55:35;94298.75;;;13.60;94.46
43553;BME280;29153;42.696;23.218;2023-07-29T01:58:03;94308.48;;;13.65;94.34
43553;BME280;29153;42.696;23.218;2023-07-29T02:00:31;94306.67;;;13.49;94.93
43553;BME280;29153;42.696;23.218;2023-07-29T02:02:58;94306.58;;;13.54;95.16
43553;BME280;29153;42.696;23.218;2023-07-29T02:05:26;94305.23;;;13.68;94.78
43553;BME280;29153;42.696;23.218;2023-07-29T02:07:53;94304.03;;;13.74;94.71
43553;BME280;29153;42.696;23.218;2023-07-29T02:10:21;94301.53;;;13.66;94.21
43553;BME280;29153;42.696;23.218;2023-07-29T02:12:49;94304.64;;;13.57;95.01
43553;BME280;29153;42.696;23.218;2023-07-29T02:15:16;94305.72;;;13.56;95.20
43553;BME280;29153;42.696;23.218;2023-07-29T02:17:45;94309.17;;;13.57;95.61
43553;BME280;29153;42.696;23.218;2023-07-29T02:20:12;94313.58;;;13.64;95.41
43553;BME280;29153;42.696;23.218;2023-07-29T02:22:40;94313.95;;;13.71;95.45
43553;BME280;29153;42.696;23.218;2023-07-29T02:25:08;94312.77;;;13.77;94.89
43553;BME280;29153;42.696;23.218;2023-07-29T02:27:36;94313.86;;;13.62;95.14
43553;BME280;29153;42.696;23.218;2023-07-29T02:30:04;94315.35;;;13.55;94.88
43553;BME280;29153;42.696;23.218;2023-07-29T02:32:32;94312.59;;;13.46;95.34
43553;BME280;29153;42.696;23.218;2023-07-29T02:35:00;94314.55;;;13.27;96.75
43553;BME280;29153;42.696;23.218;2023-07-29T02:37:27;94322.64;;;13.22;97.62
43553;BME280;29153;42.696;23.218;2023-07-29T02:39:55;94322.69;;;13.33;97.27
43553;BME280;29153;42.696;23.218;2023-07-29T02:42:23;94322.63;;;13.36;97.20
43553;BME280;29153;42.696;23.218;2023-07-29T02:44:50;94320.03;;;13.33;97.99
43553;BME280;29153;42.696;23.218;2023-07-29T02:47:18;94314.62;;;13.38;97.42
43553;BME280;29153;42.696;23.218;2023-07-29T02:49:45;94323.03;;;13.29;97.39
43553;BME280;29153;42.696;23.218;2023-07-29T02:52:13;94327.02;;;13.29;97.50
43553;BME280;29153;42.696;23.218;2023-07-29T02:54:41;94335.73;;;13.32;97.28
43553;BME280;29153;42.696;23.218;2023-07-29T02:57:08;94325.72;;;13.27;97.26
43553;BME280;29153;42.696;23.218;2023-07-29T02:59:36;94328.89;;;13.29;97.37
43553;BME280;29153;42.696;23.218;2023-07-29T03:02:04;94338.39;;;13.32;97.15
43553;BME280;29153;42.696;23.218;2023-07-29T03:04:31;94341.56;;;13.34;96.98
43553;BME280;29153;42.696;23.218;2023-07-29T03:06:59;94341.06;;;13.32;97.29
43553;BME280;29153;42.696;23.218;2023-07-29T03:09:26;94344.25;;;13.32;97.39
43553;BME280;29153;42.696;23.218;2023-07-29T03:11:54;94343.09;;;13.38;97.15
43553;BME280;29153;42.696;23.218;2023-07-29T03:14:23;94339.10;;;13.38;97.33
43553;BME280;29153;42.696;23.218;2023-07-29T03:16:51;94345.70;;;13.40;97.53
43553;BME280;29153;42.696;23.218;2023-07-29T03:19:18;94345.78;;;13.35;97.71
43553;BME280;29153;42.696;23.218;2023-07-29T03:21:46;94351.11;;;13.21;97.96
43553;BME280;29153;42.696;23.218;2023-07-29T03:24:13;94348.62;;;13.11;98.49
43553;BME280;29153;42.696;23.218;2023-07-29T03:26:41;94345.70;;;13.10;99.05
43553;BME280;29153;42.696;23.218;2023-07-29T03:29:09;94337.59;;;13.18;98.88
43553;BME280;29153;42.696;23.218;2023-07-29T03:31:36;94337.59;;;13.18;98.88
43553;BME280;29153;42.696;23.218;2023-07-29T03:34:04;94347.69;;;13.18;98.59
43553;BME280;29153;42.696;23.218;2023-07-29T03:36:34;94347.69;;;13.18;98.59
43553;BME280;29153;42.696;23.218;2023-07-29T03:39:04;94344.23;;;13.18;98.92
43553;BME280;29153;42.696;23.218;2023-07-29T03:41:31;94339.59;;;13.26;98.70
43553;BME280;29153;42.696;23.218;2023-07-29T03:44:02;94341.66;;;13.29;98.23
43553;BME280;29153;42.696;23.218;2023-07-29T03:46:30;94336.47;;;13.35;97.50
43553;BME280;29153;42.696;23.218;2023-07-29T03:49:00;94342.00;;;13.25;98.12
43553;BME280;29153;42.696;23.218;2023-07-29T03:51:27;94337.59;;;13.18;98.85
43553;BME280;29153;42.696;23.218;2023-07-29T03:53:55;94347.60;;;13.23;99.29
43553;BME280;29153;42.696;23.218;2023-07-29T03:56:25;94342.53;;;13.25;99.45
43553;BME280;29153;42.696;23.218;2023-07-29T03:58:53;94346.58;;;13.36;99.18
43553;BME280;29153;42.696;23.218;2023-07-29T04:01:23;94342.73;;;13.28;99.96
43553;BME280;29153;42.696;23.218;2023-07-29T04:03:51;94349.98;;;13.25;100.00
43553;BME280;29153;42.696;23.218;2023-07-29T04:06:19;94346.98;;;13.29;100.00
43553;BME280;29153;42.696;23.218;2023-07-29T04:08:46;94350.53;;;13.38;100.00
43553;BME280;29153;42.696;23.218;2023-07-29T04:11:20;94351.46;;;13.45;100.00
43553;BME280;29153;42.696;23.218;2023-07-29T04:13:52;94346.24;;;13.53;100.00
43553;BME280;29153;42.696;23.218;2023-07-29T04:16:20;94347.86;;;13.65;100.00
43553;BME280;29153;42.696;23.218;2023-07-29T04:18:51;94344.09;;;13.69;100.00
43553;BME280;29153;42.696;23.218;2023-07-29T04:21:23;94350.43;;;13.71;100.00
43553;BME280;29153;42.696;23.218;2023-07-29T04:23:49;94347.07;;;13.79;100.00
43553;BME280;29153;42.696;23.218;2023-07-29T04:26:17;94346.59;;;13.90;100.00
43553;BME280;29153;42.696;23.218;2023-07-29T04:28:44;94351.50;;;13.97;100.00
43553;BME280;29153;42.696;23.218;2023-07-29T04:31:12;94348.66;;;14.04;100.00
43553;BME280;29153;42.696;23.218;2023-07-29T04:33:39;94349.61;;;14.11;100.00
43553;BME280;29153;42.696;23.218;2023-07-29T04:36:09;94353.01;;;14.25;100.00
43553;BME280;29153;42.696;23.218;2023-07-29T04:38:38;94354.88;;;14.38;100.00
43553;BME280;29153;42.696;23.218;2023-07-29T04:41:11;94354.30;;;14.41;100.00
43553;BME280;29153;42.696;23.218;2023-07-29T04:46:14;94352.85;;;14.69;100.00
43553;BME280;29153;42.696;23.218;2023-07-29T04:48:49;94352.56;;;14.70;100.00
43553;BME280;29153;42.696;23.218;2023-07-29T04:51:15;94354.48;;;14.89;100.00
43553;BME280;29153;42.696;23.218;2023-07-29T04:56:16;94360.47;;;15.17;100.00
43553;BME280;29153;42.696;23.218;2023-07-29T04:58:57;94361.61;;;15.25;100.00
43553;BME280;29153;42.696;23.218;2023-07-29T05:01:20;94369.73;;;15.31;100.00
43553;BME280;29153;42.696;23.218;2023-07-29T05:03:48;94303.39;;;14.96;100.00
43553;BME280;29153;42.696;23.218;2023-07-29T05:06:16;94374.44;;;15.56;99.54
43553;BME280;29153;42.696;23.218;2023-07-29T05:09:00;94377.64;;;15.75;97.18
43553;BME280;29153;42.696;23.218;2023-07-29T05:11:15;94305.47;;;15.38;94.77
43553;BME280;29153;42.696;23.218;2023-07-29T05:13:45;94380.64;;;16.02;91.57
43553;BME280;29153;42.696;23.218;2023-07-29T05:18:56;94382.76;;;16.39;89.92
43553;BME280;29153;42.696;23.218;2023-07-29T05:23:54;94389.45;;;16.57;88.78
43553;BME280;29153;42.696;23.218;2023-07-29T05:26:49;94385.27;;;16.64;88.29
43553;BME280;29153;42.696;23.218;2023-07-29T05:34:31;94391.22;;;17.04;85.24
43553;BME280;29153;42.696;23.218;2023-07-29T05:37:09;94395.31;;;17.19;83.83
43553;BME280;29153;42.696;23.218;2023-07-29T05:39:35;94402.12;;;17.31;82.95
43553;BME280;29153;42.696;23.218;2023-07-29T05:42:03;94398.41;;;17.38;84.71
43553;BME280;29153;42.696;23.218;2023-07-29T05:44:31;94398.38;;;17.47;85.02
43553;BME280;29153;42.696;23.218;2023-07-29T05:46:59;94400.83;;;17.46;88.01
43553;BME280;29153;42.696;23.218;2023-07-29T05:49:26;94398.38;;;17.47;86.11
43553;BME280;29153;42.696;23.218;2023-07-29T05:51:54;94396.33;;;17.52;88.74
43553;BME280;29153;42.696;23.218;2023-07-29T05:54:22;94392.97;;;17.58;87.84
43553;BME280;29153;42.696;23.218;2023-07-29T05:56:51;94388.58;;;17.68;84.72
43553;BME280;29153;42.696;23.218;2023-07-29T05:59:30;94399.58;;;17.84;84.00
43553;BME280;29153;42.696;23.218;2023-07-29T06:01:58;94402.59;;;17.97;83.20
43553;BME280;29153;42.696;23.218;2023-07-29T06:04:28;94404.11;;;18.06;82.08
43553;BME280;29153;42.696;23.218;2023-07-29T06:12:52;94398.34;;;18.40;78.61
43553;BME280;29153;42.696;23.218;2023-07-29T06:15:20;94397.19;;;18.64;80.46
43553;BME280;29153;42.696;23.218;2023-07-29T06:17:49;94392.55;;;18.73;81.69
43553;BME280;29153;42.696;23.218;2023-07-29T06:20:22;94392.75;;;18.74;82.34
43553;BME280;29153;42.696;23.218;2023-07-29T06:22:46;94389.02;;;18.87;82.25
43553;BME280;29153;42.696;23.218;2023-07-29T06:25:16;94384.05;;;18.98;80.80
43553;BME280;29153;42.696;23.218;2023-07-29T06:27:45;94377.85;;;19.12;80.60
43553;BME280;29153;42.696;23.218;2023-07-29T06:30:15;94378.88;;;19.20;79.79
43553;BME280;29153;42.696;23.218;2023-07-29T06:32:42;94384.52;;;19.39;77.63
43553;BME280;29153;42.696;23.218;2023-07-29T06:35:11;94388.64;;;19.51;76.06
43553;BME280;29153;42.696;23.218;2023-07-29T06:37:42;94384.61;;;19.51;74.79
43553;BME280;29153;42.696;23.218;2023-07-29T06:40:10;94376.77;;;19.64;75.03
43553;BME280;29153;42.696;23.218;2023-07-29T06:42:37;94377.69;;;19.74;75.49
43553;BME280;29153;42.696;23.218;2023-07-29T06:45:07;94376.92;;;19.80;74.66
43553;BME280;29153;42.696;23.218;2023-07-29T06:47:38;94377.25;;;19.90;71.44
43553;BME280;29153;42.696;23.218;2023-07-29T06:50:06;94381.30;;;19.96;73.00
43553;BME280;29153;42.696;23.218;2023-07-29T06:52:33;94378.05;;;20.09;72.40
43553;BME280;29153;42.696;23.218;2023-07-29T06:55:03;94383.09;;;20.05;72.48
43553;BME280;29153;42.696;23.218;2023-07-29T06:57:34;94381.52;;;20.04;70.69
43553;BME280;29153;42.696;23.218;2023-07-29T07:00:02;94382.23;;;20.31;70.67
43553;BME280;29153;42.696;23.218;2023-07-29T07:02:30;94390.06;;;20.48;68.11
43553;BME280;29153;42.696;23.218;2023-07-29T07:04:58;94385.34;;;20.51;69.01
43553;BME280;29153;42.696;23.218;2023-07-29T07:07:30;94384.91;;;20.49;69.20
43553;BME280;29153;42.696;23.218;2023-07-29T07:09:57;94387.23;;;20.51;68.42
43553;BME280;29153;42.696;23.218;2023-07-29T07:12:25;94387.34;;;20.54;68.57
43553;BME280;29153;42.696;23.218;2023-07-29T07:15:13;94381.83;;;20.63;69.70
43553;BME280;29153;42.696;23.218;2023-07-29T07:17:30;94379.77;;;20.84;68.32
43553;BME280;29153;42.696;23.218;2023-07-29T07:19:58;94378.18;;;20.89;68.68
43553;BME280;29153;42.696;23.218;2023-07-29T07:22:25;94374.04;;;20.92;68.20
43553;BME280;29153;42.696;23.218;2023-07-29T07:24:53;94379.14;;;21.09;67.44
43553;BME280;29153;42.696;23.218;2023-07-29T07:27:20;94377.53;;;21.26;64.75
43553;BME280;29153;42.696;23.218;2023-07-29T07:29:48;94379.84;;;21.33;64.10
43553;BME280;29153;42.696;23.218;2023-07-29T07:32:19;94369.45;;;21.48;67.31
43553;BME280;29153;42.696;23.218;2023-07-29T07:34:47;94367.89;;;21.62;65.28
43553;BME280;29153;42.696;23.218;2023-07-29T07:39:53;94369.52;;;21.89;60.29
43553;BME280;29153;42.696;23.218;2023-07-29T07:42:38;94364.55;;;21.91;61.29
43553;BME280;29153;42.696;23.218;2023-07-29T07:45:04;94374.38;;;22.05;62.12
43553;BME280;29153;42.696;23.218;2023-07-29T07:47:33;94369.84;;;22.59;58.98
43553;BME280;29153;42.696;23.218;2023-07-29T07:56:59;94369.69;;;23.64;58.64
43553;BME280;29153;42.696;23.218;2023-07-29T07:59:35;94370.91;;;24.12;54.69
43553;BME280;29153;42.696;23.218;2023-07-29T08:02:15;94372.61;;;24.86;53.15
43553;BME280;29153;42.696;23.218;2023-07-29T08:04:43;94372.38;;;25.11;54.98
43553;BME280;29153;42.696;23.218;2023-07-29T08:07:10;94372.98;;;25.48;54.77
43553;BME280;29153;42.696;23.218;2023-07-29T08:09:48;94373.63;;;25.88;49.93
43553;BME280;29153;42.696;23.218;2023-07-29T08:12:09;94372.01;;;26.23;47.58
43553;BME280;29153;42.696;23.218;2023-07-29T08:14:37;94369.37;;;26.61;47.23
43553;BME280;29153;42.696;23.218;2023-07-29T08:17:07;94373.25;;;26.88;45.08
43553;BME280;29153;42.696;23.218;2023-07-29T08:19:35;94370.13;;;27.24;46.38
43553;BME280;29153;42.696;23.218;2023-07-29T08:22:03;94370.66;;;27.50;48.03
43553;BME280;29153;42.696;23.218;2023-07-29T08:24:33;94376.94;;;27.79;41.09
43553;BME280;29153;42.696;23.218;2023-07-29T08:27:04;94370.34;;;27.84;41.68
43553;BME280;29153;42.696;23.218;2023-07-29T08:29:40;94369.23;;;28.10;43.04
43553;BME280;29153;42.696;23.218;2023-07-29T08:32:05;94370.20;;;28.43;42.94
43553;BME280;29153;42.696;23.218;2023-07-29T08:34:35;94376.41;;;28.68;39.92
43553;BME280;29153;42.696;23.218;2023-07-29T08:37:12;94368.61;;;28.84;37.66
43553;BME280;29153;42.696;23.218;2023-07-29T08:40:03;94371.70;;;28.97;37.44
43553;BME280;29153;42.696;23.218;2023-07-29T08:42:23;94359.72;;;29.24;40.48
43553;BME280;29153;42.696;23.218;2023-07-29T08:44:56;94360.96;;;29.09;36.70
43553;BME280;29153;42.696;23.218;2023-07-29T08:50:04;94348.29;;;29.07;38.16
43553;BME280;29153;42.696;23.218;2023-07-29T08:52:32;94346.48;;;29.26;41.94
43553;BME280;29153;42.696;23.218;2023-07-29T08:55:06;94351.50;;;29.42;36.53
43553;BME280;29153;42.696;23.218;2023-07-29T09:00:11;94346.14;;;29.60;37.47
43553;BME280;29153;42.696;23.218;2023-07-29T09:02:43;94345.77;;;29.95;37.90
43553;BME280;29153;42.696;23.218;2023-07-29T09:05:10;94348.27;;;29.97;33.70
43553;BME280;29153;42.696;23.218;2023-07-29T09:07:39;94308.55;;;29.49;35.62
43553;BME280;29153;42.696;23.218;2023-07-29T09:10:22;94338.37;;;29.84;38.85
43553;BME280;29153;42.696;23.218;2023-07-29T09:13:36;94335.59;;;29.99;36.88
43553;BME280;29153;42.696;23.218;2023-07-29T09:15:34;94337.09;;;30.07;37.37
43553;BME280;29153;42.696;23.218;2023-07-29T09:20:36;94328.22;;;30.40;33.80
43553;BME280;29153;42.696;23.218;2023-07-29T09:23:11;94330.64;;;30.31;34.79
43553;BME280;29153;42.696;23.218;2023-07-29T09:25:41;94333.30;;;30.38;35.78
43553;BME280;29153;42.696;23.218;2023-07-29T09:34:31;94330.36;;;30.41;33.78
43553;BME280;29153;42.696;23.218;2023-07-29T09:36:41;94323.89;;;30.43;36.06
43553;BME280;29153;42.696;23.218;2023-07-29T09:39:16;94321.38;;;30.40;34.93
43553;BME280;29153;42.696;23.218;2023-07-29T09:41:51;94318.14;;;30.30;33.27
43553;BME280;29153;42.696;23.218;2023-07-29T09:44:18;94317.32;;;30.37;34.04
43553;BME280;29153;42.696;23.218;2023-07-29T09:52:22;94311.70;;;30.32;33.78
43553;BME280;29153;42.696;23.218;2023-07-29T09:54:52;94307.16;;;30.37;32.69
43553;BME280;29153;42.696;23.218;2023-07-29T09:57:19;94304.58;;;30.19;33.36
43553;BME280;29153;42.696;23.218;2023-07-29T09:59:57;94306.23;;;30.32;33.78
43553;BME280;29153;42.696;23.218;2023-07-29T10:02:26;94308.83;;;30.02;33.16
43553;BME280;29153;42.696;23.218;2023-07-29T10:05:01;94298.58;;;29.83;33.44
43553;BME280;29153;42.696;23.218;2023-07-29T10:07:27;94297.20;;;30.13;31.69
43553;BME280;29153;42.696;23.218;2023-07-29T10:09:56;94292.67;;;30.18;36.29
43553;BME280;29153;42.696;23.218;2023-07-29T10:12:25;94297.75;;;30.19;32.89
43553;BME280;29153;42.696;23.218;2023-07-29T10:14:55;94291.09;;;29.98;32.22
43553;BME280;29153;42.696;23.218;2023-07-29T10:17:25;94284.09;;;30.19;31.52
43553;BME280;29153;42.696;23.218;2023-07-29T10:19:54;94281.71;;;30.21;34.00
43553;BME280;29153;42.696;23.218;2023-07-29T10:22:50;94273.34;;;30.39;35.04
43553;BME280;29153;42.696;23.218;2023-07-29T10:25:02;94274.17;;;30.36;31.31
43553;BME280;29153;42.696;23.218;2023-07-29T10:27:31;94268.70;;;30.36;33.11
43553;BME280;29153;42.696;23.218;2023-07-29T10:30:02;94262.70;;;30.52;34.91
43553;BME280;29153;42.696;23.218;2023-07-29T10:32:33;94259.77;;;30.54;31.77
43553;BME280;29153;42.696;23.218;2023-07-29T10:35:01;94257.38;;;30.38;31.89
43553;BME280;29153;42.696;23.218;2023-07-29T10:37:29;94258.24;;;30.27;30.77
43553;BME280;29153;42.696;23.218;2023-07-29T10:39:57;94251.27;;;30.45;31.94
43553;BME280;29153;42.696;23.218;2023-07-29T10:42:25;94250.70;;;30.39;31.68
43553;BME280;29153;42.696;23.218;2023-07-29T10:44:56;94247.94;;;30.46;30.67
43553;BME280;29153;42.696;23.218;2023-07-29T10:47:25;94251.92;;;30.56;34.02
43553;BME280;29153;42.696;23.218;2023-07-29T10:49:59;94242.34;;;30.56;30.66
43553;BME280;29153;42.696;23.218;2023-07-29T10:55:24;94239.80;;;30.57;29.83
43553;BME280;29153;42.696;23.218;2023-07-29T10:57:40;94238.05;;;30.55;31.09
43553;BME280;29153;42.696;23.218;2023-07-29T11:00:08;94231.11;;;30.81;33.48
43553;BME280;29153;42.696;23.218;2023-07-29T11:02:37;94224.28;;;31.00;30.74
43553;BME280;29153;42.696;23.218;2023-07-29T11:05:17;94225.28;;;31.13;29.47
43553;BME280;29153;42.696;23.218;2023-07-29T11:07:49;94225.92;;;31.09;28.68
43553;BME280;29153;42.696;23.218;2023-07-29T11:10:19;94225.73;;;31.23;31.04
43553;BME280;29153;42.696;23.218;2023-07-29T11:12:48;94218.89;;;31.23;27.37
43553;BME280;29153;42.696;23.218;2023-07-29T11:15:25;94221.70;;;31.16;28.80
43553;BME280;29153;42.696;23.218;2023-07-29T11:18:00;94221.90;;;31.17;31.06
43553;BME280;29153;42.696;23.218;2023-07-29T11:20:31;94230.70;;;31.16;29.16
43553;BME280;29153;42.696;23.218;2023-07-29T11:23:00;94223.83;;;31.05;28.73
43553;BME280;29153;42.696;23.218;2023-07-29T11:25:30;94221.09;;;31.05;29.94
43553;BME280;29153;42.696;23.218;2023-07-29T11:28:02;94220.77;;;31.14;28.59
43553;BME280;29153;42.696;23.218;2023-07-29T11:30:31;94221.70;;;31.31;31.70
43553;BME280;29153;42.696;23.218;2023-07-29T11:33:05;94212.99;;;31.51;29.00
43553;BME280;29153;42.696;23.218;2023-07-29T11:35:29;94215.23;;;31.60;31.24
43553;BME280;29153;42.696;23.218;2023-07-29T11:37:57;94214.12;;;31.54;28.20
43553;BME280;29153;42.696;23.218;2023-07-29T11:40:27;94215.47;;;31.42;26.49
43553;BME280;29153;42.696;23.218;2023-07-29T11:42:55;94205.90;;;31.57;30.37
43553;BME280;29153;42.696;23.218;2023-07-29T11:45:28;94144.08;;;31.18;27.29
43553;BME280;29153;42.696;23.218;2023-07-29T11:47:56;94198.53;;;31.66;28.16
43553;BME280;29153;42.696;23.218;2023-07-29T11:50:24;94197.56;;;31.76;29.52
43553;BME280;29153;42.696;23.218;2023-07-29T11:52:53;94199.12;;;31.77;26.40
43553;BME280;29153;42.696;23.218;2023-07-29T11:55:39;94195.23;;;31.63;26.92
43553;BME280;29153;42.696;23.218;2023-07-29T11:58:07;94193.05;;;31.78;25.32
43553;BME280;29153;42.696;23.218;2023-07-29T12:00:35;94190.89;;;31.89;27.44
43553;BME280;29153;42.696;23.218;2023-07-29T12:03:03;94187.42;;;31.96;28.71
43553;BME280;29153;42.696;23.218;2023-07-29T12:05:32;94188.09;;;31.42;25.56
43553;BME280;29153;42.696;23.218;2023-07-29T12:08:00;94183.86;;;31.76;28.75
43553;BME280;29153;42.696;23.218;2023-07-29T12:10:30;94186.19;;;31.89;27.13
43553;BME280;29153;42.696;23.218;2023-07-29T12:12:57;94175.82;;;31.27;24.74
43553;BME280;29153;42.696;23.218;2023-07-29T12:15:29;94178.33;;;31.56;27.14
43553;BME280;29153;42.696;23.218;2023-07-29T12:18:04;94175.91;;;31.20;24.71
43553;BME280;29153;42.696;23.218;2023-07-29T12:20:31;94174.77;;;31.44;27.63
43553;BME280;29153;42.696;23.218;2023-07-29T12:23:00;94174.81;;;31.68;27.84
43553;BME280;29153;42.696;23.218;2023-07-29T12:25:29;94169.70;;;31.81;26.67
43553;BME280;29153;42.696;23.218;2023-07-29T12:28:06;94162.59;;;31.84;27.89
43553;BME280;29153;42.696;23.218;2023-07-29T12:30:26;94165.33;;;31.84;27.08
43553;BME280;29153;42.696;23.218;2023-07-29T12:32:58;94159.09;;;31.72;25.84
43553;BME280;29153;42.696;23.218;2023-07-29T12:35:33;94163.02;;;31.71;25.61
43553;BME280;29153;42.696;23.218;2023-07-29T12:38:00;94158.16;;;31.43;28.26
43553;BME280;29153;42.696;23.218;2023-07-29T12:40:28;94161.70;;;31.29;29.08
43553;BME280;29153;42.696;23.218;2023-07-29T12:43:00;94164.15;;;31.23;26.42
43553;BME280;29153;42.696;23.218;2023-07-29T12:45:26;94166.84;;;31.38;27.25
43553;BME280;29153;42.696;23.218;2023-07-29T12:47:55;94169.45;;;31.45;25.38
43553;BME280;29153;42.696;23.218;2023-07-29T12:50:23;94166.44;;;31.51;26.06
43553;BME280;29153;42.696;23.218;2023-07-29T12:52:51;94160.71;;;31.57;27.06
43553;BME280;29153;42.696;23.218;2023-07-29T12:55:22;94158.43;;;31.76;26.99
43553;BME280;29153;42.696;23.218;2023-07-29T12:57:51;94157.48;;;31.86;26.04
43553;BME280;29153;42.696;23.218;2023-07-29T13:00:35;94155.69;;;31.76;25.91
43553;BME280;29153;42.696;23.218;2023-07-29T13:02:51;94163.85;;;31.68;24.44
43553;BME280;29153;42.696;23.218;2023-07-29T13:05:18;94156.53;;;31.73;25.47
43553;BME280;29153;42.696;23.218;2023-07-29T13:07:46;94151.12;;;31.69;25.76
43553;BME280;29153;42.696;23.218;2023-07-29T13:10:14;94158.69;;;31.61;25.53
43553;BME280;29153;42.696;23.218;2023-07-29T13:12:45;94154.12;;;31.51;26.99
43553;BME280;29153;42.696;23.218;2023-07-29T13:15:15;94142.57;;;31.52;25.06
43553;BME280;29153;42.696;23.218;2023-07-29T13:17:47;94142.08;;;31.45;24.72
43553;BME280;29153;42.696;23.218;2023-07-29T13:20:15;94138.93;;;31.35;25.30
43553;BME280;29153;42.696;23.218;2023-07-29T13:22:42;94137.31;;;31.26;28.60
43553;BME280;29153;42.696;23.218;2023-07-29T13:25:12;94138.55;;;31.22;26.84
43553;BME280;29153;42.696;23.218;2023-07-29T13:34:11;94132.17;;;31.16;28.47
43553;BME280;29153;42.696;23.218;2023-07-29T13:36:42;94132.98;;;31.02;26.37
43553;BME280;29153;42.696;23.218;2023-07-29T13:39:15;94126.75;;;31.13;26.67
43553;BME280;29153;42.696;23.218;2023-07-29T13:41:42;94125.50;;;31.06;25.94
43553;BME280;29153;42.696;23.218;2023-07-29T13:44:11;94122.58;;;31.05;28.19
43553;BME280;29153;42.696;23.218;2023-07-29T13:46:39;94123.54;;;31.06;27.63
43553;BME280;29153;42.696;23.218;2023-07-29T13:52:28;94108.36;;;30.98;29.40
43553;BME280;29153;42.696;23.218;2023-07-29T13:54:56;94102.54;;;30.96;29.29
43553;BME280;29153;42.696;23.218;2023-07-29T13:57:24;94105.20;;;30.88;27.92
43553;BME280;29153;42.696;23.218;2023-07-29T13:59:51;94109.59;;;30.94;28.09
43553;BME280;29153;42.696;23.218;2023-07-29T14:02:19;94102.16;;;30.94;29.79
43553;BME280;29153;42.696;23.218;2023-07-29T14:04:49;94103.33;;;30.82;27.39